Pagrindinis puslapis
METAR-TAF:

METAR-TAF

Oro uostai :

Belgorodas, Rusija

platuma: 50-38-36N, ilguma: 036-35-24E, Aukštis: 224 m

Dabartinis oras

Ataskaita buvo paskelbta 23 minutes, ne 05:00 UTC
Vėjas 8 kt iš Vakarų/Pietvakarių
Temperatūra 2°C
Drėgmė 87%
Slėgis 1022 hPa
Matomumas 10 km arba daugiau
nėra debesų žemiau 1500 m ir nėra kamuolinių lietaus debesų

METAR: UUOB 200500Z 24004MPS CAVOK 02/00 Q1022 R29/010060 NOSIG

Laikas: 08:23 (05:23 UTC)

Prognozė

Ataskaita buvo paskelbta 3 valandos ir 23 minutes, ne 02:00 UTC
Prognozė galioja nuo 20 metu 03 UTC su 20 metu 12 UTC
Vėjas 10 kt iš Vakarų/Pietvakarių
Matomumas 10 km arba daugiau
Su prošvaistėmis ne aukštis 3000 ft

TAF: UUOB 200200Z 2003/2012 25005MPS 9999 BKN030

Orai ataskaitas ir orų prognozės (METAR, TAF).

turimą stotys yra geltonos ir raudonos taškus žemėlapyje.

Perkelti pele per norėdami pamatyti stoties vardą.

Tada spustelėkite, norėdami matyti oro stebėjimo ir prognozės.

Norėdami pakeisti žemėlapį: spustelėkite ant žalios mygtukų su juodo kryžiaus žemyn,; žalią mygtuką su brūkšneliu, jei norite nutolinti; arba žalių rodyklių gretimoms žemėlapius.


METAR-TAF: